createdAt,value
2017-04-17T05:26:30.836Z,1004.41
2017-04-17T05:27:11.333Z,1004.45
2017-04-17T05:27:17.951Z,1004.46
2017-04-17T05:28:31.103Z,1004.5
2017-04-17T05:31:10.938Z,1004.25
2017-04-17T05:32:24.616Z,1004.17
2017-04-17T05:33:38.475Z,1004.14
2017-04-17T05:34:52.565Z,1004.13
2017-04-17T05:36:06.141Z,1004.13
2017-04-17T05:37:19.536Z,1004.17
2017-04-17T05:38:33.624Z,1004.2
2017-04-17T05:39:47.032Z,1004.2
2017-04-17T05:41:00.682Z,1004.19
2017-04-17T05:42:14.195Z,1004.12
2017-04-17T05:43:27.669Z,1004.03
2017-04-17T05:44:41.713Z,1004.02
2017-04-17T05:45:55.225Z,1003.89
2017-04-17T05:47:09.014Z,1003.94
2017-04-17T05:48:22.499Z,1003.9
2017-04-17T05:49:35.922Z,1003.84
2017-04-17T05:50:49.423Z,1003.8
2017-04-17T05:52:02.887Z,1003.77
2017-04-17T05:53:16.805Z,1003.79
2017-04-17T05:54:30.596Z,1003.77
2017-04-17T05:55:44.681Z,1003.72
2017-04-17T05:56:58.057Z,1003.68
2017-04-17T05:58:11.585Z,1003.65
2017-04-17T05:59:24.982Z,1003.68
2017-04-17T06:00:38.535Z,1003.68
2017-04-17T06:01:51.948Z,1003.68
2017-04-17T06:03:05.766Z,1003.66
2017-04-17T06:04:19.144Z,1003.65
2017-04-17T06:05:32.938Z,1003.69
2017-04-17T06:06:46.732Z,1003.59
2017-04-17T06:08:00.289Z,1003.6
2017-04-17T06:09:13.746Z,1003.58
2017-04-17T06:10:27.288Z,1003.57
2017-04-17T06:11:41.194Z,1003.57
2017-04-17T06:12:54.860Z,1003.58
2017-04-17T06:14:08.612Z,1003.54
2017-04-17T06:15:22.156Z,1003.55
2017-04-17T06:16:35.600Z,1003.51
2017-04-17T06:18:01.663Z,1003.48
2017-04-17T06:19:15.050Z,1003.43
2017-04-17T06:20:28.580Z,1003.4
2017-04-17T06:21:41.983Z,1003.35
2017-04-17T06:22:55.461Z,1003.38
2017-04-17T06:24:08.927Z,1003.33
2017-04-17T06:25:22.929Z,1003.34
2017-04-17T06:26:36.426Z,1003.34
2017-04-17T06:27:49.966Z,1003.33
2017-04-17T06:29:03.402Z,1003.31
2017-04-17T06:30:16.916Z,1003.31
2017-04-17T06:31:30.595Z,1003.28
2017-04-17T06:32:44.098Z,1003.26
2017-04-17T06:33:57.533Z,1003.25
2017-04-17T06:35:11.075Z,1003.21
2017-04-17T06:36:24.496Z,1003.2
2017-04-17T06:37:38.307Z,1003.2
2017-04-17T06:38:51.899Z,1003.18
2017-04-17T06:40:05.547Z,1003.14
2017-04-17T06:41:18.983Z,1003.13
2017-04-17T06:42:32.477Z,1003.1
2017-04-17T06:43:46.003Z,1003.14
2017-04-17T06:44:59.926Z,1003.15
2017-04-17T06:46:13.332Z,1003.16
2017-04-17T06:47:29.416Z,1003.07
2017-04-17T06:48:42.815Z,1003.02
2017-04-17T06:49:56.877Z,1002.97
2017-04-17T06:51:10.657Z,1002.96
2017-04-17T06:52:25.997Z,1002.89
2017-04-17T06:53:39.596Z,1002.9
2017-04-17T06:54:53.553Z,1002.9
2017-04-17T06:56:07.190Z,1002.96
2017-04-17T06:57:21.052Z,1002.92
2017-04-17T06:58:34.482Z,1002.87
2017-04-17T06:59:48.044Z,1002.77
2017-04-17T07:01:01.511Z,1002.77
2017-04-17T07:02:15.017Z,1002.71
2017-04-17T07:03:28.400Z,1002.63
2017-04-17T07:04:41.886Z,1002.62
2017-04-17T07:05:55.874Z,1002.59
2017-04-17T07:07:09.579Z,1002.59
2017-04-17T07:08:23.005Z,1002.55
2017-04-17T07:09:36.538Z,1002.5
2017-04-17T07:10:50.268Z,1002.49
2017-04-17T07:12:04.018Z,1002.49
2017-04-17T07:13:17.428Z,1002.51
2017-04-17T07:14:31.239Z,1002.51
2017-04-17T07:15:44.621Z,1002.52
2017-04-17T07:16:58.225Z,1002.5
2017-04-17T07:18:11.953Z,1002.5
2017-04-17T07:19:25.511Z,1002.52
2017-04-17T07:20:39.210Z,1002.5
2017-04-17T07:21:52.801Z,1002.51
2017-04-17T07:23:06.201Z,1002.48
2017-04-17T07:24:19.791Z,1002.52
2017-04-17T07:25:33.719Z,1002.55
2017-04-17T07:26:47.319Z,1002.59
2017-04-17T07:28:00.861Z,1002.6
2017-04-17T07:29:14.347Z,1002.67
2017-04-17T07:30:27.779Z,1002.7
2017-04-17T07:31:41.346Z,1002.69
2017-04-17T07:32:55.286Z,1002.66
2017-04-17T07:34:09.150Z,1002.61
2017-04-17T07:35:22.662Z,1002.61
2017-04-17T07:36:36.569Z,1002.62
2017-04-17T07:37:50.106Z,1002.65
2017-04-17T07:39:03.714Z,1002.73
2017-04-17T07:40:17.086Z,1002.76
2017-04-17T07:41:30.594Z,1002.78
2017-04-17T07:42:44.040Z,1002.82
2017-04-17T07:43:57.641Z,1002.82
2017-04-17T07:45:11.181Z,1002.72
2017-04-17T07:46:24.858Z,1002.75
2017-04-17T07:47:38.575Z,1002.68
2017-04-17T07:48:52.246Z,1002.68
2017-04-17T07:50:18.582Z,1002.66
2017-04-17T07:51:32.628Z,1002.69
2017-04-17T07:52:46.015Z,1002.78
2017-04-17T07:53:59.672Z,1002.72
2017-04-17T07:55:13.084Z,1002.74
2017-04-17T07:56:26.582Z,1002.76
2017-04-17T07:57:41.440Z,1002.73
2017-04-17T07:58:54.995Z,1002.75
2017-04-17T08:00:08.679Z,1002.61
2017-04-17T08:01:22.167Z,1002.7
2017-04-17T08:02:35.799Z,1002.8
2017-04-17T08:03:52.328Z,1002.82
2017-04-17T08:05:05.749Z,1002.75
2017-04-17T08:06:19.351Z,1002.77
2017-04-17T08:07:33.483Z,1002.77
2017-04-17T08:08:47.469Z,1002.8
2017-04-17T08:10:01.295Z,1002.83
2017-04-17T08:11:15.193Z,1002.81
2017-04-17T08:12:28.617Z,1002.71
2017-04-17T08:13:42.104Z,1002.71
2017-04-17T08:14:55.709Z,1002.68
2017-04-17T08:16:09.953Z,1002.65
2017-04-17T08:17:23.704Z,1002.59
2017-04-17T08:18:37.767Z,1002.64
2017-04-17T08:19:51.202Z,1002.59
2017-04-17T08:21:05.083Z,1002.52
2017-04-17T08:22:18.822Z,1002.54
2017-04-17T08:23:32.383Z,1002.55
2017-04-17T08:24:45.759Z,1002.49
2017-04-17T08:25:59.416Z,1002.55
2017-04-17T08:27:12.802Z,1002.57
2017-04-17T08:28:26.648Z,1002.59
2017-04-17T08:29:40.581Z,1002.62
2017-04-17T08:30:54.486Z,1002.62
2017-04-17T08:32:07.900Z,1002.68
2017-04-17T08:33:21.699Z,1002.65
2017-04-17T08:34:35.155Z,1002.65
2017-04-17T08:35:48.729Z,1002.64
2017-04-17T08:37:02.574Z,1002.74
2017-04-17T08:38:16.185Z,1002.7
2017-04-17T08:39:30.007Z,1002.71
2017-04-17T08:40:43.598Z,1002.72
2017-04-17T08:41:57.155Z,1002.78
2017-04-17T08:43:11.489Z,1002.77
2017-04-17T08:44:25.087Z,1002.85
2017-04-17T08:45:38.681Z,1002.86
2017-04-17T08:46:52.428Z,1002.92
2017-04-17T08:48:05.991Z,1003
2017-04-17T08:49:19.399Z,1002.94
2017-04-17T08:50:33.029Z,1002.97
2017-04-17T08:51:46.474Z,1002.91
2017-04-17T08:53:00.143Z,1002.93
2017-04-17T08:54:13.551Z,1002.95
2017-04-17T08:55:27.138Z,1002.93
2017-04-17T08:56:40.626Z,1002.89
2017-04-17T08:57:54.475Z,1002.88
2017-04-17T08:59:08.387Z,1002.97
2017-04-17T09:00:22.620Z,1003
2017-04-17T09:01:36.072Z,1002.99
2017-04-17T09:02:51.030Z,1002.99
2017-04-17T09:04:05.125Z,1003.08
2017-04-17T09:05:19.117Z,1003.08
2017-04-17T09:06:33.075Z,1003.12
2017-04-17T09:07:46.966Z,1003.1
2017-04-17T09:09:00.793Z,1003.15
2017-04-17T09:10:15.332Z,1003.22
2017-04-17T09:11:29.467Z,1003.22
2017-04-17T09:12:43.374Z,1003.14
2017-04-17T09:13:57.521Z,1003.18
2017-04-17T09:15:11.182Z,1003.18
2017-04-17T09:16:24.787Z,1003.19
2017-04-17T09:17:38.503Z,1003.17
2017-04-17T09:18:52.189Z,1003.23
2017-04-17T09:20:08.052Z,1003.22
2017-04-17T09:21:22.223Z,1003.19
2017-04-17T09:22:36.778Z,1003.18
2017-04-17T09:23:50.746Z,1003.13
2017-04-17T09:25:04.501Z,1003.18
2017-04-17T09:26:18.112Z,1003.2
2017-04-17T09:27:31.761Z,1003.07
2017-04-17T09:28:45.753Z,1003.11
2017-04-17T09:29:59.600Z,1003.08
2017-04-17T09:31:13.012Z,1003.04
2017-04-17T09:32:26.535Z,1003.05
2017-04-17T09:33:40.161Z,1003.05
2017-04-17T09:34:54.373Z,1003.02
2017-04-17T09:36:07.925Z,1003.05
2017-04-17T09:37:22.140Z,1003.17
2017-04-17T09:38:35.687Z,1003.2
2017-04-17T09:39:50.150Z,1003.23
2017-04-17T09:41:04.077Z,1003.17
2017-04-17T09:42:18.339Z,1003.16
2017-04-17T09:43:32.981Z,1003.26
2017-04-17T09:44:46.700Z,1003.23
2017-04-17T09:46:00.179Z,1003.17
2017-04-17T09:47:13.713Z,1003.18
2017-04-17T09:48:27.424Z,1003.17
2017-04-17T09:49:42.285Z,1003.2
2017-04-17T09:50:55.813Z,1003.23
2017-04-17T09:52:09.726Z,1003.2
2017-04-17T09:53:23.519Z,1003.18
2017-04-17T09:54:37.235Z,1003.16
2017-04-17T09:55:51.657Z,1003.11
2017-04-17T09:57:05.235Z,1003.16
2017-04-17T09:58:19.289Z,1003.25
2017-04-17T09:59:33.021Z,1003.29
2017-04-17T10:00:47.893Z,1003.55
2017-04-17T10:02:01.858Z,1003.5
2017-04-17T10:03:15.535Z,1003.45
2017-04-17T10:04:29.132Z,1003.49
2017-04-17T10:05:42.929Z,1003.51
2017-04-17T10:06:57.389Z,1003.48
2017-04-17T10:08:11.682Z,1003.49
2017-04-17T10:09:25.533Z,1003.55
2017-04-17T10:10:38.974Z,1003.55
2017-04-17T10:11:52.666Z,1003.44
2017-04-17T10:13:06.197Z,1003.47
2017-04-17T10:14:20.200Z,1003.57
2017-04-17T10:15:33.810Z,1003.56
2017-04-17T10:17:09.066Z,1003.54
2017-04-17T10:18:23.843Z,1003.63
2017-04-17T10:19:37.617Z,1003.64
2017-04-17T10:20:51.795Z,1003.64
2017-04-17T10:22:05.622Z,1003.56
2017-04-17T10:23:19.221Z,1003.63
2017-04-17T10:24:33.550Z,1003.64
2017-04-17T10:25:47.740Z,1003.72
2017-04-17T10:27:01.330Z,1003.61
2017-04-17T10:28:15.334Z,1003.64
2017-04-17T10:29:29.737Z,1003.63
2017-04-17T10:30:43.831Z,1003.64
2017-04-17T10:31:57.313Z,1003.6
2017-04-17T10:33:11.469Z,1003.59
2017-04-17T10:34:25.013Z,1003.61
2017-04-17T10:35:50.902Z,1003.63
2017-04-17T10:37:06.970Z,1003.52
2017-04-17T10:38:21.491Z,1003.46
2017-04-17T10:39:34.989Z,1003.54
2017-04-17T10:40:48.636Z,1003.48
2017-04-17T10:42:02.429Z,1003.52
2017-04-17T10:43:16.431Z,1003.55
2017-04-17T10:44:30.238Z,1003.65
2017-04-17T10:45:44.264Z,1003.69
2017-04-17T10:46:57.853Z,1003.71
2017-04-17T10:48:11.501Z,1003.76
2017-04-17T10:49:25.293Z,1003.63
2017-04-17T10:50:38.840Z,1003.62
2017-04-17T10:51:52.368Z,1003.53
2017-04-17T10:53:28.587Z,1003.57
2017-04-17T10:54:42.359Z,1003.63
2017-04-17T10:55:56.650Z,1003.78
2017-04-17T10:57:10.428Z,1003.79
2017-04-17T10:58:23.880Z,1003.85
2017-04-17T10:59:37.656Z,1003.87
2017-04-17T11:00:51.237Z,1003.89
2017-04-17T11:02:04.889Z,1003.83
2017-04-17T11:03:18.570Z,1003.9
2017-04-17T11:04:45.627Z,1003.85
2017-04-17T11:05:59.313Z,1003.87
2017-04-17T11:07:13.104Z,1003.84
2017-04-17T11:08:26.722Z,1003.79
2017-04-17T11:09:40.434Z,1003.8
2017-04-17T11:10:54.667Z,1003.71
2017-04-17T11:12:08.688Z,1003.74
2017-04-17T11:13:22.448Z,1003.77
2017-04-17T11:14:36.650Z,1003.81
2017-04-17T11:15:50.195Z,1003.75
2017-04-17T11:17:04.365Z,1003.84
2017-04-17T11:18:17.977Z,1003.83
2017-04-17T11:19:32.099Z,1003.81
2017-04-17T11:20:46.018Z,1003.82
2017-04-17T11:21:59.622Z,1003.83
2017-04-17T11:23:13.500Z,1003.85
2017-04-17T11:24:27.552Z,1003.94
2017-04-17T11:25:46.061Z,1003.85
2017-04-17T11:27:00.197Z,1003.82
2017-04-17T11:28:14.046Z,1003.71
2017-04-17T11:29:27.995Z,1003.82
2017-04-17T11:30:41.893Z,1003.84
2017-04-17T11:31:56.394Z,1003.8
2017-04-17T11:33:09.860Z,1004
2017-04-17T11:34:23.513Z,1003.79
2017-04-17T11:35:37.306Z,1003.85
2017-04-17T11:36:51.283Z,1003.84
2017-04-17T11:38:04.732Z,1003.9
2017-04-17T11:39:33.811Z,1004.02
2017-04-17T11:40:48.290Z,1003.88
2017-04-17T11:42:01.831Z,1003.87
2017-04-17T11:43:17.075Z,1004.03
2017-04-17T11:44:31.105Z,1004.09
2017-04-17T11:45:45.739Z,1003.97
2017-04-17T11:47:00.147Z,1004.18
2017-04-17T11:48:14.004Z,1004
2017-04-17T11:49:46.128Z,1003.95
2017-04-17T11:50:59.960Z,1004.05
2017-04-17T11:52:14.313Z,1004.11
2017-04-17T11:53:27.986Z,1004.07
2017-04-17T11:54:44.359Z,1004.34
2017-04-17T11:55:59.622Z,1003.92
2017-04-17T11:57:13.567Z,1004.07
2017-04-17T11:58:27.280Z,1004.05
2017-04-17T11:59:41.520Z,1004.1
2017-04-17T12:00:55.316Z,1004.4
2017-04-17T12:02:08.770Z,1003.99
2017-04-17T12:03:22.369Z,1004.07
2017-04-17T12:04:36.119Z,1004.15
2017-04-17T12:05:50.042Z,1004.14
2017-04-17T12:07:03.808Z,1004.12
2017-04-17T12:08:17.506Z,1004.19
2017-04-17T12:09:31.768Z,1004.27
2017-04-17T12:10:45.755Z,1004.24
2017-04-17T12:11:59.295Z,1004.25
2017-04-17T12:13:13.021Z,1004.34
2017-04-17T12:14:26.593Z,1004.39
2017-04-17T12:15:41.447Z,1004.39
2017-04-17T12:16:55.318Z,1004.66
2017-04-17T12:18:08.931Z,1004.28
2017-04-17T12:19:22.492Z,1004.35
2017-04-17T12:20:36.140Z,1004.46
2017-04-17T12:21:50.267Z,1004.43
2017-04-17T12:23:03.933Z,1004.43
2017-04-17T12:24:17.526Z,1004.36
2017-04-17T12:25:31.428Z,1004.31
2017-04-17T12:26:45.089Z,1004.31
2017-04-17T12:27:58.963Z,1004.43
2017-04-17T12:29:12.624Z,1004.41
2017-04-17T12:30:26.209Z,1004.37
2017-04-17T12:31:40.314Z,1004.47
2017-04-17T12:32:54.036Z,1004.42
2017-04-17T12:34:07.839Z,1004.51
2017-04-17T12:35:21.798Z,1004.41
2017-04-17T12:36:35.449Z,1004.55
2017-04-17T12:37:49.470Z,1004.46
2017-04-17T12:39:03.499Z,1004.63
2017-04-17T12:40:17.931Z,1004.63
2017-04-17T12:41:31.401Z,1004.77
2017-04-17T12:42:45.459Z,1004.75
2017-04-17T12:43:58.878Z,1004.63
2017-04-17T12:45:21.739Z,1004.73
2017-04-17T12:46:35.534Z,1004.62
2017-04-17T12:47:49.688Z,1004.92
2017-04-17T12:49:03.211Z,1004.62
2017-04-17T12:50:17.349Z,1004.7
2017-04-17T12:51:31.259Z,1004.8
2017-04-17T12:52:45.183Z,1004.98
2017-04-17T12:53:59.036Z,1004.74
2017-04-17T12:55:12.671Z,1004.8
2017-04-17T12:56:27.292Z,1004.85
2017-04-17T12:57:41.091Z,1004.75
2017-04-17T12:58:55.023Z,1004.93
2017-04-17T13:00:09.691Z,1004.86
2017-04-17T13:01:23.756Z,1005.06
2017-04-17T13:04:53.621Z,1004.93
2017-04-17T13:06:08.140Z,1004.88
2017-04-17T13:07:22.251Z,1004.97
2017-04-17T13:08:36.801Z,1005.22
2017-04-17T13:09:50.683Z,1005.06
2017-04-17T13:11:05.157Z,1004.97
2017-04-17T13:12:21.216Z,1004.93
2017-04-17T13:13:35.012Z,1004.86
2017-04-17T13:14:49.042Z,1004.88
2017-04-17T13:16:03.788Z,1005.01
2017-04-17T13:17:17.836Z,1005.04
2017-04-17T13:18:32.026Z,1004.96
2017-04-17T13:20:05.806Z,1004.94
2017-04-17T13:21:20.143Z,1005.01
2017-04-17T13:22:34.518Z,1005.02
2017-04-17T13:23:48.337Z,1004.98
2017-04-17T13:25:02.631Z,1004.95
2017-04-17T13:26:16.506Z,1005.04
2017-04-17T13:27:30.199Z,1004.95
2017-04-17T13:28:43.931Z,1005.07
2017-04-17T13:29:57.841Z,1005.23
2017-04-17T13:31:33.300Z,1005.11
2017-04-17T13:32:47.392Z,1005.09
2017-04-17T13:34:01.487Z,1005.04
2017-04-17T13:35:24.480Z,1005.12
2017-04-17T13:37:03.937Z,1005.01
2017-04-17T13:38:18.024Z,1005.16
2017-04-17T13:39:32.715Z,1004.99
2017-04-17T13:40:46.412Z,1005.07
2017-04-17T13:42:00.340Z,1004.99
2017-04-17T13:43:14.481Z,1005.07
2017-04-17T13:44:28.016Z,1004.93
2017-04-17T13:45:42.238Z,1005.03
2017-04-17T13:46:56.289Z,1005.23
2017-04-17T13:48:10.752Z,1005.02
2017-04-17T13:49:24.368Z,1004.95
2017-04-17T13:50:38.480Z,1004.95
2017-04-17T13:51:52.889Z,1005.06
2017-04-17T13:53:07.184Z,1005.01
2017-04-17T13:54:21.591Z,1005.15
2017-04-17T13:55:35.541Z,1005.22
2017-04-17T13:56:49.535Z,1005.11
2017-04-17T13:58:03.180Z,1005.2
2017-04-17T13:59:16.645Z,1005.05
2017-04-17T14:00:31.266Z,1005.12
2017-04-17T14:01:45.453Z,1005.13
2017-04-17T14:02:59.039Z,1005.29
2017-04-17T14:04:12.798Z,1005.42
2017-04-17T14:05:26.691Z,1005.17
2017-04-17T14:06:40.687Z,1005.12
2017-04-17T14:07:55.349Z,1005.12
2017-04-17T14:09:08.838Z,1005.25
2017-04-17T14:10:22.677Z,1005.21
2017-04-17T14:11:36.536Z,1005.12
2017-04-17T14:12:51.194Z,1005.09
2017-04-17T14:14:04.668Z,1004.99
2017-04-17T14:15:19.440Z,1005.04
2017-04-17T14:18:02.281Z,1005.04
2017-04-17T14:19:16.061Z,1004.99
2017-04-17T14:20:29.961Z,1005.03
2017-04-17T14:21:43.482Z,1005.05
2017-04-17T14:22:58.058Z,1005.07
2017-04-17T14:24:11.843Z,1005.17
2017-04-17T14:25:25.571Z,1005.08
2017-04-17T14:26:39.259Z,1005.08
2017-04-17T14:27:52.919Z,1005.29
2017-04-17T14:29:06.746Z,1005.12
2017-04-17T14:30:23.422Z,1005.25
2017-04-17T14:31:37.718Z,1005.12
2017-04-17T14:32:52.356Z,1005.11
2017-04-17T14:34:06.006Z,1005.09
2017-04-17T14:35:20.238Z,1005.1
2017-04-17T14:36:34.331Z,1005.05
2017-04-17T14:39:18.123Z,1005.07
2017-04-17T14:40:32.420Z,1005.13
2017-04-17T14:41:46.554Z,1005.18
2017-04-17T14:43:00.310Z,1005.15
2017-04-17T14:44:14.064Z,1005.07
2017-04-17T14:45:27.581Z,1005.27
2017-04-17T14:46:41.624Z,1005.12
2017-04-17T14:47:55.526Z,1005.13
2017-04-17T14:49:09.520Z,1005.19
2017-04-17T14:50:23.368Z,1005.14
2017-04-17T14:51:37.075Z,1005.14
2017-04-17T14:52:50.522Z,1005.09
2017-04-17T14:54:04.332Z,1005.08
2017-04-17T14:55:18.058Z,1005.08
